createdAt,value
2019-04-11T00:00:39.624Z,8.50
2019-04-11T00:03:06.805Z,8.50
2019-04-11T00:05:35.093Z,8.50
2019-04-11T00:08:03.803Z,8.40
2019-04-11T00:10:31.265Z,8.50
2019-04-11T00:12:59.150Z,8.40
2019-04-11T00:15:28.746Z,8.40
2019-04-11T00:17:56.490Z,8.40
2019-04-11T00:20:24.224Z,8.40
2019-04-11T00:22:52.635Z,8.50
2019-04-11T00:25:20.120Z,8.40
2019-04-11T00:27:48.946Z,8.30
2019-04-11T00:30:16.287Z,8.30
2019-04-11T00:32:45.555Z,8.10
2019-04-11T00:35:13.368Z,8.10
2019-04-11T00:37:43.442Z,8.10
2019-04-11T00:40:11.037Z,8.10
2019-04-11T00:42:38.934Z,8.10
2019-04-11T00:45:07.616Z,8.00
2019-04-11T00:47:35.259Z,8.00
2019-04-11T00:50:04.078Z,8.00
2019-04-11T00:52:31.902Z,8.00
2019-04-11T00:54:59.960Z,8.00
2019-04-11T00:57:28.982Z,7.80
2019-04-11T00:59:57.053Z,7.80
2019-04-11T01:02:25.277Z,7.80
2019-04-11T01:04:54.029Z,7.70
2019-04-11T01:07:22.761Z,7.60
2019-04-11T01:09:50.741Z,7.60
2019-04-11T01:12:18.763Z,7.40
2019-04-11T01:14:46.953Z,7.40
2019-04-11T01:17:15.006Z,7.30
2019-04-11T01:19:43.143Z,7.30
2019-04-11T01:22:11.214Z,7.40
2019-04-11T01:24:39.879Z,7.20
2019-04-11T01:27:08.079Z,7.20
2019-04-11T01:29:36.150Z,7.20
2019-04-11T01:32:06.409Z,7.30
2019-04-11T01:34:34.880Z,7.30
2019-04-11T01:37:01.907Z,7.20
2019-04-11T01:39:35.687Z,7.30
2019-04-11T01:42:03.818Z,7.30
2019-04-11T01:44:32.519Z,7.10
2019-04-11T01:47:00.623Z,7.00
2019-04-11T01:49:28.679Z,7.00
2019-04-11T01:51:58.156Z,6.80
2019-04-11T01:54:25.898Z,6.80
2019-04-11T01:56:53.829Z,6.90
2019-04-11T01:59:21.885Z,7.00
2019-04-11T02:01:55.527Z,7.00
2019-04-11T02:04:24.056Z,6.80
2019-04-11T02:06:54.112Z,6.70
2019-04-11T02:09:22.084Z,6.70
2019-04-11T02:11:49.971Z,6.80
2019-04-11T02:14:19.566Z,6.80
2019-04-11T02:16:47.316Z,6.70
2019-04-11T02:19:16.158Z,6.70
2019-04-11T02:21:44.203Z,6.70
2019-04-11T02:24:15.302Z,6.60
2019-04-11T02:26:46.529Z,6.70
2019-04-11T02:29:11.284Z,6.60
2019-04-11T02:31:39.328Z,6.60
2019-04-11T02:34:08.610Z,6.60
2019-04-11T02:36:36.413Z,6.60
2019-04-11T02:39:08.044Z,6.50
2019-04-11T02:41:35.087Z,6.50
2019-04-11T02:44:01.521Z,6.50
2019-04-11T02:46:41.478Z,6.40
2019-04-11T02:48:57.186Z,6.40
2019-04-11T02:51:24.884Z,6.50
2019-04-11T02:53:54.220Z,6.50
2019-04-11T02:56:21.290Z,6.70
2019-04-11T02:58:50.267Z,6.60
2019-04-11T03:01:17.933Z,6.60
2019-04-11T03:03:47.355Z,6.60
2019-04-11T03:06:15.264Z,6.50
2019-04-11T03:08:43.535Z,6.50
2019-04-11T03:11:10.956Z,6.40
2019-04-11T03:13:38.559Z,6.40
2019-04-11T03:16:23.874Z,6.40
2019-04-11T03:18:53.034Z,6.40
2019-04-11T03:21:09.070Z,6.50
2019-04-11T03:23:33.040Z,6.60
2019-04-11T03:26:00.669Z,6.60
2019-04-11T03:28:30.835Z,6.50
2019-04-11T03:31:27.250Z,6.50
2019-04-11T03:36:36.590Z,6.40
2019-04-11T03:38:44.601Z,6.30
2019-04-11T03:41:04.351Z,6.30
2019-04-11T03:43:29.907Z,6.40
2019-04-11T03:46:03.813Z,6.30
2019-04-11T03:48:31.973Z,6.30
2019-04-11T03:50:42.470Z,6.30
2019-04-11T03:53:11.382Z,6.30
2019-04-11T03:55:38.938Z,6.30
2019-04-11T03:58:08.189Z,6.20
2019-04-11T04:00:36.931Z,6.20
2019-04-11T04:03:03.974Z,6.30
2019-04-11T04:05:33.650Z,6.10
2019-04-11T04:08:00.132Z,6.20
2019-04-11T04:10:27.695Z,6.20
2019-04-11T04:12:55.852Z,6.20
2019-04-11T04:15:36.146Z,6.20
2019-04-11T04:17:52.659Z,6.10
2019-04-11T04:20:21.498Z,6.00
2019-04-11T04:22:56.739Z,6.00
2019-04-11T04:25:26.050Z,6.00
2019-04-11T04:27:52.557Z,6.10
2019-04-11T04:30:21.983Z,6.20
2019-04-11T04:32:49.330Z,6.30
2019-04-11T04:35:21.302Z,5.90
2019-04-11T04:37:47.365Z,5.80
2019-04-11T04:40:31.199Z,5.80
2019-04-11T04:42:47.722Z,5.70
2019-04-11T04:45:11.821Z,5.80
2019-04-11T04:47:46.536Z,5.90
2019-04-11T04:50:06.462Z,5.80
2019-04-11T04:52:36.699Z,5.60
2019-04-11T04:55:05.531Z,5.60
2019-04-11T04:57:32.911Z,5.60
2019-04-11T05:00:00.149Z,5.80
2019-04-11T05:02:28.352Z,5.70
2019-04-11T05:04:56.561Z,5.70
2019-04-11T05:07:23.645Z,5.70
2019-04-11T05:09:52.247Z,5.60
2019-04-11T05:12:20.677Z,5.60
2019-04-11T05:14:49.693Z,5.70
2019-04-11T05:17:17.134Z,5.70
2019-04-11T05:19:44.640Z,5.60
2019-04-11T05:22:12.680Z,5.50
2019-04-11T05:27:25.025Z,5.60
2019-04-11T05:29:52.141Z,5.50
2019-04-11T05:32:21.928Z,5.50
2019-04-11T05:34:49.065Z,5.40
2019-04-11T05:37:18.624Z,5.40
2019-04-11T05:39:45.858Z,5.40
2019-04-11T05:42:17.703Z,5.60
2019-04-11T05:44:43.127Z,5.60
2019-04-11T05:47:14.623Z,5.80
2019-04-11T05:49:41.680Z,5.80
2019-04-11T05:52:08.018Z,5.70
2019-04-11T05:54:51.110Z,5.90
2019-04-11T05:57:22.678Z,5.80
2019-04-11T05:59:49.376Z,5.60
2019-04-11T06:02:19.603Z,5.60
2019-04-11T06:04:54.900Z,5.80
2019-04-11T06:07:19.177Z,5.80
2019-04-11T06:09:48.195Z,5.70
2019-04-11T06:15:19.934Z,5.60
2019-04-11T06:17:46.212Z,5.50
2019-04-11T06:20:33.934Z,5.50
2019-04-11T06:23:03.901Z,5.60
2019-04-11T06:25:33.252Z,5.70
2019-04-11T06:28:02.046Z,5.90
2019-04-11T06:30:34.629Z,5.80
2019-04-11T06:33:08.044Z,5.80
2019-04-11T06:38:36.983Z,5.80
2019-04-11T06:41:06.608Z,6.00
2019-04-11T06:43:44.582Z,5.90
2019-04-11T06:46:14.438Z,5.90
2019-04-11T06:48:45.828Z,6.10
2019-04-11T06:51:17.718Z,6.10
2019-04-11T06:53:45.577Z,6.10
2019-04-11T06:56:14.379Z,6.20
2019-04-11T06:58:43.682Z,6.50
2019-04-11T07:01:11.988Z,6.50
2019-04-11T07:03:41.582Z,6.30
2019-04-11T07:06:11.328Z,6.10
2019-04-11T07:08:44.789Z,6.10
2019-04-11T07:11:12.130Z,6.10
2019-04-11T07:13:57.910Z,6.20
2019-04-11T07:16:25.999Z,6.50
2019-04-11T07:18:57.355Z,6.40
2019-04-11T07:21:25.425Z,6.40
2019-04-11T07:23:59.991Z,6.10
2019-04-11T07:26:28.006Z,6.10
2019-04-11T07:29:02.727Z,6.10
2019-04-11T07:31:48.615Z,6.10
2019-04-11T07:34:22.432Z,6.10
2019-04-11T07:36:50.503Z,6.10
2019-04-11T07:42:21.371Z,6.20
2019-04-11T07:45:10.242Z,6.40
2019-04-11T07:47:38.244Z,6.40
2019-04-11T07:50:07.843Z,6.40
2019-04-11T07:52:35.879Z,6.40
2019-04-11T07:55:02.986Z,6.80
2019-04-11T07:57:36.142Z,6.90
2019-04-11T08:00:06.622Z,6.80
2019-04-11T08:02:55.258Z,6.70
2019-04-11T08:05:23.623Z,6.80
2019-04-11T08:07:57.343Z,6.80
2019-04-11T08:10:40.043Z,6.90
2019-04-11T08:13:12.374Z,6.90
2019-04-11T08:15:43.994Z,6.90
2019-04-11T08:18:14.693Z,6.80
2019-04-11T08:20:59.638Z,6.80
2019-04-11T08:23:27.767Z,6.70
2019-04-11T08:29:01.367Z,6.80
2019-04-11T08:31:40.216Z,6.60
2019-04-11T08:34:07.306Z,6.30
2019-04-11T08:36:50.554Z,6.40
2019-04-11T08:39:19.055Z,6.90
2019-04-11T08:44:48.264Z,7.20
2019-04-11T08:47:16.334Z,7.40
2019-04-11T08:49:45.977Z,7.40
2019-04-11T08:52:20.940Z,7.30
2019-04-11T08:55:02.215Z,7.30
2019-04-11T08:57:36.115Z,7.50
2019-04-11T09:00:20.324Z,7.50
2019-04-11T09:02:49.206Z,7.50
2019-04-11T09:05:22.895Z,7.80
2019-04-11T09:07:58.090Z,7.60
2019-04-11T09:10:31.856Z,7.60
2019-04-11T09:13:00.702Z,7.80
2019-04-11T09:15:35.128Z,7.70
2019-04-11T09:18:06.163Z,8.00
2019-04-11T09:20:36.175Z,8.20
2019-04-11T09:23:04.248Z,8.10
2019-04-11T09:25:39.061Z,7.60
2019-04-11T09:28:06.134Z,7.70
2019-04-11T09:30:41.187Z,7.80
2019-04-11T09:33:15.082Z,7.80
2019-04-11T09:35:58.191Z,7.80
2019-04-11T09:38:29.012Z,7.90
2019-04-11T09:41:03.933Z,7.90
2019-04-11T09:43:36.405Z,7.90
2019-04-11T09:46:10.365Z,8.00
2019-04-11T09:48:59.008Z,8.20
2019-04-11T09:51:40.294Z,8.20
2019-04-11T09:54:19.698Z,8.20
2019-04-11T09:56:58.197Z,8.30
2019-04-11T09:59:31.485Z,7.90
2019-04-11T10:02:04.211Z,7.90
2019-04-11T10:04:33.928Z,7.50
2019-04-11T10:07:17.586Z,7.50
2019-04-11T10:09:50.542Z,7.60
2019-04-11T10:12:25.059Z,7.30
2019-04-11T10:14:53.618Z,7.30
2019-04-11T10:17:23.393Z,7.10
2019-04-11T10:19:50.121Z,6.90
2019-04-11T10:22:18.565Z,6.90
2019-04-11T10:24:46.708Z,7.00
2019-04-11T10:27:16.562Z,7.00
2019-04-11T10:30:06.498Z,7.10
2019-04-11T10:32:33.431Z,7.10
2019-04-11T10:35:02.294Z,7.30
2019-04-11T10:37:30.363Z,7.50
2019-04-11T10:40:15.599Z,7.70
2019-04-11T10:42:42.922Z,7.70
2019-04-11T10:45:16.547Z,7.90
2019-04-11T10:47:45.014Z,8.00
2019-04-11T10:50:31.876Z,7.90
2019-04-11T10:53:00.638Z,8.30
2019-04-11T10:55:34.283Z,8.20
2019-04-11T10:58:06.998Z,8.40
2019-04-11T11:00:37.597Z,8.40
2019-04-11T11:03:06.147Z,8.40
2019-04-11T11:05:38.106Z,8.40
2019-04-11T11:08:06.858Z,8.40
2019-04-11T11:10:35.396Z,8.80
2019-04-11T11:13:07.861Z,8.70
2019-04-11T11:15:35.862Z,8.80
2019-04-11T11:18:39.812Z,9.20
2019-04-11T11:20:51.693Z,9.10
2019-04-11T11:23:20.456Z,9.10
2019-04-11T11:26:07.003Z,9.20
2019-04-11T11:28:38.648Z,9.10
2019-04-11T11:31:07.436Z,9.00
2019-04-11T11:33:35.150Z,9.00
2019-04-11T11:36:10.720Z,9.10
2019-04-11T11:38:37.701Z,9.30
2019-04-11T11:41:24.818Z,9.40
2019-04-11T11:43:52.592Z,9.50
2019-04-11T11:46:29.727Z,9.50
2019-04-11T11:48:56.669Z,9.40
2019-04-11T11:51:30.057Z,9.40
2019-04-11T11:53:59.392Z,9.60
2019-04-11T11:56:27.412Z,9.60
2019-04-11T11:59:02.892Z,9.70
2019-04-11T12:01:30.191Z,10.00
2019-04-11T12:06:59.754Z,10.20
2019-04-11T12:12:24.199Z,10.10
2019-04-11T12:14:59.333Z,10.20
2019-04-11T12:17:32.156Z,10.10
2019-04-11T12:20:04.844Z,10.10
2019-04-11T12:22:26.477Z,10.10
2019-04-11T12:24:54.871Z,10.20
2019-04-11T12:27:24.543Z,10.20
2019-04-11T12:29:57.684Z,10.30
2019-04-11T12:32:28.363Z,10.40
2019-04-11T12:35:13.639Z,11.50
2019-04-11T12:37:43.501Z,11.50
2019-04-11T12:40:17.107Z,11.70
2019-04-11T12:42:45.954Z,11.70
2019-04-11T12:45:31.914Z,11.70
2019-04-11T12:47:59.995Z,11.30
2019-04-11T12:50:29.885Z,10.90
2019-04-11T12:52:58.089Z,10.80
2019-04-11T12:55:26.133Z,10.90
2019-04-11T12:57:58.101Z,11.00
2019-04-11T13:00:31.971Z,11.60
2019-04-11T13:03:17.765Z,12.00
2019-04-11T13:05:45.770Z,12.30
2019-04-11T13:08:19.669Z,12.70
2019-04-11T13:10:47.713Z,12.80
2019-04-11T13:13:22.150Z,12.90
2019-04-11T13:15:51.613Z,12.90
2019-04-11T13:18:39.567Z,12.90
2019-04-11T13:21:10.811Z,12.00
2019-04-11T13:23:56.440Z,12.20
2019-04-11T13:26:42.356Z,12.20
2019-04-11T13:29:16.050Z,12.40
2019-04-11T13:31:48.511Z,13.00
2019-04-11T13:34:20.268Z,13.10
2019-04-11T13:39:46.559Z,11.70
2019-04-11T13:42:27.781Z,12.80
2019-04-11T13:44:55.822Z,12.80
2019-04-11T13:47:27.323Z,13.00
2019-04-11T13:49:55.366Z,12.60
2019-04-11T13:52:39.043Z,12.10
2019-04-11T13:55:07.859Z,12.10
2019-04-11T13:57:42.735Z,11.90
2019-04-11T14:00:16.579Z,11.80
2019-04-11T14:02:51.097Z,11.90
2019-04-11T14:05:15.187Z,12.00
2019-04-11T14:07:44.114Z,12.10
2019-04-11T14:10:12.213Z,12.10
2019-04-11T14:12:40.239Z,12.10
2019-04-11T14:15:08.878Z,12.10
2019-04-11T14:17:36.955Z,12.00
2019-04-11T14:20:11.606Z,12.00
2019-04-11T14:22:57.456Z,12.00
2019-04-11T14:25:31.190Z,11.90
2019-04-11T14:28:02.001Z,11.60
2019-04-11T14:30:31.935Z,11.60
2019-04-11T14:33:01.029Z,11.60
2019-04-11T14:38:25.815Z,11.60
2019-04-11T14:41:01.597Z,11.50
2019-04-11T14:43:26.431Z,11.40
2019-04-11T14:46:09.378Z,11.50
2019-04-11T14:48:40.082Z,11.40
2019-04-11T14:51:08.063Z,11.20
2019-04-11T14:53:53.996Z,11.20
2019-04-11T14:56:27.039Z,11.30
2019-04-11T14:59:07.615Z,11.40
2019-04-11T15:01:35.684Z,11.40
2019-04-11T15:04:24.554Z,11.30
2019-04-11T15:06:54.404Z,11.40
2019-04-11T15:09:28.910Z,11.80
2019-04-11T15:11:59.654Z,12.10
2019-04-11T15:17:26.313Z,12.20
2019-04-11T15:20:02.247Z,12.10
2019-04-11T15:22:29.912Z,12.00
2019-04-11T15:25:00.611Z,11.80
2019-04-11T15:27:46.363Z,11.70
2019-04-11T15:30:18.351Z,11.60
2019-04-11T15:32:47.218Z,11.60
2019-04-11T15:35:15.748Z,11.60
2019-04-11T15:37:49.438Z,11.20
2019-04-11T15:40:17.462Z,11.30
2019-04-11T15:43:01.213Z,11.40
2019-04-11T15:45:30.803Z,11.50
2019-04-11T15:48:05.211Z,11.50
2019-04-11T15:50:38.915Z,11.50
2019-04-11T15:53:07.726Z,11.40
2019-04-11T15:55:53.668Z,11.40
2019-04-11T15:58:21.724Z,11.40
2019-04-11T16:00:49.800Z,11.30
2019-04-11T16:03:17.871Z,11.20
2019-04-11T16:05:48.861Z,11.10
2019-04-11T16:08:16.984Z,11.00
2019-04-11T16:10:48.626Z,10.90
2019-04-11T16:13:20.849Z,11.00
2019-04-11T16:16:07.060Z,11.20
2019-04-11T16:18:32.603Z,11.00
2019-04-11T16:21:05.170Z,10.80
2019-04-11T16:23:45.941Z,10.70
2019-04-11T16:26:13.990Z,10.80
2019-04-11T16:28:45.902Z,10.80
2019-04-11T16:31:14.827Z,10.70
2019-04-11T16:33:46.864Z,10.70
2019-04-11T16:36:16.832Z,10.70
2019-04-11T16:38:50.450Z,10.70
2019-04-11T16:41:24.519Z,10.70
2019-04-11T16:43:54.879Z,10.70
2019-04-11T16:46:37.007Z,10.80
2019-04-11T16:49:05.871Z,10.80
2019-04-11T16:51:33.923Z,10.80
2019-04-11T16:54:02.075Z,10.70
2019-04-11T16:56:30.255Z,10.60
2019-04-11T16:58:58.298Z,10.50
2019-04-11T17:01:27.142Z,10.50
2019-04-11T17:03:55.743Z,10.50
2019-04-11T17:06:39.170Z,10.50
2019-04-11T17:09:08.019Z,10.40
2019-04-11T17:11:36.102Z,10.40
2019-04-11T17:14:04.153Z,10.30
2019-04-11T17:16:32.225Z,10.30
2019-04-11T17:19:00.442Z,10.20
2019-04-11T17:21:28.461Z,10.30
2019-04-11T17:23:56.544Z,10.30
2019-04-11T17:26:24.615Z,10.20
2019-04-11T17:28:54.334Z,10.20
2019-04-11T17:31:20.839Z,10.20
2019-04-11T17:33:49.671Z,10.20
2019-04-11T17:36:17.723Z,10.10
2019-04-11T17:38:45.815Z,10.10
2019-04-11T17:41:13.866Z,10.10
2019-04-11T17:43:42.326Z,10.10
2019-04-11T17:46:10.102Z,10.00
2019-04-11T17:48:38.193Z,9.90
2019-04-11T17:51:06.234Z,9.90
2019-04-11T17:53:34.263Z,9.70
2019-04-11T17:56:02.303Z,9.70
2019-04-11T17:58:30.457Z,9.70
2019-04-11T18:01:00.469Z,9.60
2019-04-11T18:03:27.339Z,9.50
2019-04-11T18:05:55.417Z,9.60
2019-04-11T18:08:23.538Z,9.60
2019-04-11T18:10:55.784Z,9.50
2019-04-11T18:13:19.690Z,9.50
2019-04-11T18:15:47.750Z,9.40
2019-04-11T18:18:15.806Z,9.40
2019-04-11T18:20:44.739Z,9.20
2019-04-11T18:23:12.940Z,9.20
2019-04-11T18:25:41.734Z,9.20
2019-04-11T18:28:10.679Z,8.90
2019-04-11T18:30:38.666Z,8.90
2019-04-11T18:33:06.803Z,8.80
2019-04-11T18:35:34.866Z,8.70
2019-04-11T18:38:03.767Z,8.70
2019-04-11T18:40:31.833Z,8.70
2019-04-11T18:43:00.794Z,8.60
2019-04-11T18:45:28.823Z,8.60
2019-04-11T18:47:56.877Z,8.60
2019-04-11T18:50:24.919Z,8.60
2019-04-11T18:52:53.742Z,8.40
2019-04-11T18:55:21.819Z,8.40
2019-04-11T18:57:49.901Z,8.40
2019-04-11T19:00:17.952Z,8.40
2019-04-11T19:02:46.826Z,8.30
2019-04-11T19:05:14.898Z,8.30
2019-04-11T19:07:43.539Z,8.20
2019-04-11T19:10:14.549Z,8.10
2019-04-11T19:12:39.927Z,8.00
2019-04-11T19:15:08.715Z,8.00
2019-04-11T19:17:36.786Z,7.90
2019-04-11T19:20:05.579Z,8.00
2019-04-11T19:22:37.537Z,8.00
2019-04-11T19:25:01.884Z,7.90
2019-04-11T19:27:29.988Z,7.90
2019-04-11T19:29:58.042Z,8.00
2019-04-11T19:32:26.862Z,7.80
2019-04-11T19:34:55.024Z,7.80
2019-04-11T19:37:23.096Z,7.80
2019-04-11T19:39:52.358Z,7.80
2019-04-11T19:42:20.389Z,7.80
2019-04-11T19:44:49.679Z,7.70
2019-04-11T19:47:16.706Z,7.70
2019-04-11T19:49:44.783Z,7.70
2019-04-11T19:52:12.831Z,7.70
2019-04-11T19:54:40.944Z,7.60
2019-04-11T19:57:09.006Z,7.50
2019-04-11T19:59:37.052Z,7.40
2019-04-11T20:02:05.067Z,7.50
2019-04-11T20:04:33.123Z,7.40
2019-04-11T20:07:01.224Z,7.40
2019-04-11T20:09:29.258Z,7.50
2019-04-11T20:11:57.912Z,7.40
2019-04-11T20:14:25.454Z,7.30
2019-04-11T20:16:54.262Z,7.40
2019-04-11T20:19:22.367Z,7.40
2019-04-11T20:21:50.515Z,7.40
2019-04-11T20:24:18.570Z,7.30
2019-04-11T20:26:49.740Z,7.30
2019-04-11T20:29:15.662Z,7.30
2019-04-11T20:31:43.743Z,7.30
2019-04-11T20:34:11.889Z,7.30
2019-04-11T20:36:41.263Z,7.30
2019-04-11T20:39:08.063Z,7.20
2019-04-11T20:41:36.194Z,7.20
2019-04-11T20:44:04.235Z,7.10
2019-04-11T20:46:32.282Z,7.10
2019-04-11T20:49:00.338Z,7.10
2019-04-11T20:51:28.392Z,7.10
2019-04-11T20:53:56.431Z,7.10
2019-04-11T20:56:25.373Z,7.10
2019-04-11T20:58:53.446Z,7.10
2019-04-11T21:01:23.748Z,7.00
2019-04-11T21:03:49.559Z,7.10
2019-04-11T21:06:17.623Z,7.10
2019-04-11T21:08:45.700Z,7.00
2019-04-11T21:11:13.778Z,7.10
2019-04-11T21:13:41.858Z,7.10
2019-04-11T21:16:09.911Z,6.90
2019-04-11T21:18:37.977Z,6.90
2019-04-11T21:21:06.016Z,7.10
2019-04-11T21:23:34.830Z,7.10
2019-04-11T21:26:03.049Z,7.00
2019-04-11T21:28:31.097Z,7.00
2019-04-11T21:31:00.184Z,6.90
2019-04-11T21:33:27.206Z,6.80
2019-04-11T21:35:56.018Z,6.70
2019-04-11T21:38:24.890Z,6.70
2019-04-11T21:40:52.963Z,6.70
2019-04-11T21:43:21.043Z,6.80
2019-04-11T21:45:49.837Z,6.70
2019-04-11T21:48:18.008Z,6.70
2019-04-11T21:50:46.266Z,6.70
2019-04-11T21:53:15.015Z,6.80
2019-04-11T21:55:47.451Z,6.60
2019-04-11T21:58:11.903Z,6.60
2019-04-11T22:00:40.861Z,6.50
2019-04-11T22:03:08.911Z,6.50
2019-04-11T22:05:37.075Z,6.40
2019-04-11T22:08:05.855Z,6.50
2019-04-11T22:10:33.907Z,6.50
2019-04-11T22:13:02.806Z,6.60
2019-04-11T22:15:30.851Z,6.50
2019-04-11T22:17:59.675Z,6.40
2019-04-11T22:20:27.732Z,6.30
2019-04-11T22:22:55.815Z,6.30
2019-04-11T22:25:23.857Z,6.30
2019-04-11T22:27:53.837Z,6.20
2019-04-11T22:30:24.914Z,6.20
2019-04-11T22:32:49.235Z,6.00
2019-04-11T22:35:17.266Z,5.80
2019-04-11T22:37:45.323Z,5.80
2019-04-11T22:40:14.264Z,5.80
2019-04-11T22:42:42.311Z,5.70
2019-04-11T22:45:10.380Z,5.80
2019-04-11T22:47:39.262Z,5.70
2019-04-11T22:50:09.802Z,5.70
2019-04-11T22:52:35.407Z,5.70
2019-04-11T22:55:03.475Z,5.70
2019-04-11T22:57:31.550Z,5.70
2019-04-11T22:59:59.706Z,5.60
2019-04-11T23:02:35.200Z,5.30
2019-04-11T23:05:03.262Z,5.30
2019-04-11T23:07:31.327Z,5.50
2019-04-11T23:09:59.517Z,5.50
2019-04-11T23:12:27.558Z,5.40
2019-04-11T23:14:55.637Z,5.50
2019-04-11T23:17:23.707Z,5.40
2019-04-11T23:19:51.742Z,5.40
2019-04-11T23:22:20.577Z,5.10
2019-04-11T23:24:48.630Z,5.10
2019-04-11T23:27:16.670Z,5.10
2019-04-11T23:29:47.105Z,5.10
2019-04-11T23:32:14.450Z,5.00
2019-04-11T23:34:43.263Z,4.90
2019-04-11T23:37:11.326Z,4.90
2019-04-11T23:39:39.378Z,5.00
2019-04-11T23:42:08.301Z,5.10
2019-04-11T23:44:37.116Z,5.10
2019-04-11T23:47:05.147Z,5.10
2019-04-11T23:49:33.218Z,5.00
2019-04-11T23:52:01.294Z,5.00
2019-04-11T23:54:29.862Z,5.00
2019-04-11T23:57:00.477Z,4.90
2019-04-11T23:59:25.500Z,4.80
